State Rd, North Carolina
Current Conditions -  °F | °C
As of 1:55 PM on Monday 20 Oct 2014 (Local Time) from KUKF Reporting Station
Clear Clear  
Wind Chill: 68°   Ceiling: Unl
Heat Index: 68°   Visibility: 10mi
Dew Point: 48°   Wind: 8mph
Humidity: 49%   Direction: 220°SW
Pressure: 30.06"   Gusts: 17mph
Location:  36.3943°N, 80.8906°W
Report Text: KUKF 201755Z AUTO 22007G15KT 10SM CLR 20/09 A3006 RMK AO2
Loading
Personal Weather Stations






























Interactive Weather Map
Tropical Storm Tracking
New forecast layout! Learn more

10-Day Weather Forecast

Advertisements
Track Severe Weather on mobile